Terminal Aerodrome Forecast
Issued by NWS Portland, OR

Home | Current Version | Previous Version | Text Only | Print | Product List | Glossary On
Versions: 1 2 3 4 5 6 7 8 9 10 11 12 13 14 15 16 17 18 19 20
000
FTUS46 KPQR 310520
TAFAST
TAF
KAST 310520Z 3106/0106 28009KT P6SM OVC015
     FM311000 28007KT P6SM -DZ BKN015 OVC025
     FM311800 31008KT P6SM OVC025
     FM312200 31012KT P6SM BKN025=

USA.gov is the U.S. government's official web portal to all federal, state and local government web resources and services.